createdAt,value
2019-03-06T00:01:54.810Z,74.83
2019-03-06T00:04:24.937Z,74.54
2019-03-06T00:06:54.953Z,74.81
2019-03-06T00:09:25.001Z,74.74
2019-03-06T00:11:55.240Z,74.52
2019-03-06T00:14:25.347Z,74.85
2019-03-06T00:16:55.728Z,74.41
2019-03-06T00:19:25.687Z,74.32
2019-03-06T00:21:55.744Z,74.41
2019-03-06T00:24:25.826Z,74.67
2019-03-06T00:26:55.689Z,74.47
2019-03-06T00:29:25.494Z,74.23
2019-03-06T00:31:55.543Z,74.30
2019-03-06T00:34:25.852Z,73.84
2019-03-06T00:36:56.000Z,73.99
2019-03-06T00:39:27.690Z,73.94
2019-03-06T00:41:57.868Z,74.78
2019-03-06T00:44:28.024Z,74.60
2019-03-06T00:46:59.406Z,74.43
2019-03-06T00:49:29.184Z,74.47
2019-03-06T00:51:58.947Z,74.26
2019-03-06T00:54:28.962Z,75.04
2019-03-06T00:56:58.701Z,74.51
2019-03-06T00:59:28.841Z,74.19
2019-03-06T01:01:58.873Z,75.35
2019-03-06T01:04:28.987Z,76.10
2019-03-06T01:06:59.100Z,76.42
2019-03-06T01:09:29.050Z,76.75
2019-03-06T01:11:58.838Z,77.85
2019-03-06T01:14:29.167Z,78.00
2019-03-06T01:16:59.001Z,78.82
2019-03-06T01:19:28.979Z,78.89
2019-03-06T01:21:59.043Z,79.63
2019-03-06T01:24:29.233Z,79.74
2019-03-06T01:26:59.367Z,79.63
2019-03-06T01:29:29.551Z,79.85
2019-03-06T01:31:59.586Z,79.82
2019-03-06T01:35:05.094Z,80.09
2019-03-06T01:37:45.879Z,79.60
2019-03-06T01:40:21.517Z,79.72
2019-03-06T01:43:13.415Z,79.66
2019-03-06T01:45:43.499Z,79.59
2019-03-06T01:48:13.754Z,79.64
2019-03-06T01:50:43.761Z,79.79
2019-03-06T01:53:13.829Z,80.18
2019-03-06T01:55:43.896Z,80.00
2019-03-06T01:58:13.963Z,79.92
2019-03-06T02:00:44.597Z,79.54
2019-03-06T02:03:14.743Z,79.24
2019-03-06T02:05:44.970Z,79.78
2019-03-06T02:08:16.513Z,80.00
2019-03-06T02:10:46.474Z,80.54
2019-03-06T02:13:16.385Z,81.33
2019-03-06T02:15:46.138Z,81.92
2019-03-06T02:18:15.976Z,82.16
2019-03-06T02:20:46.014Z,81.82
2019-03-06T02:23:16.232Z,82.29
2019-03-06T02:25:46.237Z,83.14
2019-03-06T02:28:16.382Z,83.15
2019-03-06T02:30:46.349Z,83.12
2019-03-06T02:33:16.269Z,82.85
2019-03-06T02:35:46.316Z,82.56
2019-03-06T02:38:16.088Z,82.30
2019-03-06T02:40:45.990Z,82.33
2019-03-06T02:43:15.912Z,82.34
2019-03-06T02:45:45.787Z,82.22
2019-03-06T02:48:15.845Z,82.27
2019-03-06T02:50:46.286Z,82.54
2019-03-06T02:53:16.149Z,82.43
2019-03-06T02:55:46.217Z,82.27
2019-03-06T02:58:44.379Z,82.75
2019-03-06T03:01:43.326Z,82.78
2019-03-06T03:04:23.984Z,82.35
2019-03-06T03:06:57.346Z,82.71
2019-03-06T03:09:27.394Z,83.29
2019-03-06T03:11:57.501Z,83.14
2019-03-06T03:14:27.613Z,82.66
2019-03-06T03:16:57.729Z,82.77
2019-03-06T03:19:27.767Z,82.88
2019-03-06T03:21:57.811Z,82.52
2019-03-06T03:24:28.042Z,82.70
2019-03-06T03:26:58.084Z,82.23
2019-03-06T03:29:28.262Z,82.57
2019-03-06T03:31:58.286Z,81.74
2019-03-06T03:34:28.321Z,81.92
2019-03-06T03:36:58.326Z,82.41
2019-03-06T03:39:28.526Z,82.02
2019-03-06T03:41:58.560Z,81.84
2019-03-06T03:44:28.329Z,81.46
2019-03-06T03:46:58.400Z,81.33
2019-03-06T03:49:28.149Z,81.51
2019-03-06T03:51:58.372Z,81.57
2019-03-06T03:54:28.222Z,81.80
2019-03-06T03:56:57.951Z,82.13
2019-03-06T03:59:28.068Z,81.90
2019-03-06T04:01:58.025Z,81.82
2019-03-06T04:04:27.980Z,81.54
2019-03-06T04:06:57.994Z,82.66
2019-03-06T04:09:27.756Z,82.23
2019-03-06T04:11:58.041Z,81.88
2019-03-06T04:14:27.857Z,81.88
2019-03-06T04:16:57.856Z,82.42
2019-03-06T04:19:27.822Z,82.28
2019-03-06T04:21:57.771Z,82.46
2019-03-06T04:24:28.166Z,82.53
2019-03-06T04:26:57.901Z,82.56
2019-03-06T04:29:27.646Z,82.44
2019-03-06T04:31:57.770Z,81.86
2019-03-06T04:34:27.775Z,81.54
2019-03-06T04:36:57.637Z,82.02
2019-03-06T04:39:27.800Z,82.30
2019-03-06T04:41:57.832Z,82.33
2019-03-06T04:44:27.573Z,81.99
2019-03-06T04:46:57.654Z,81.86
2019-03-06T04:49:27.459Z,81.76
2019-03-06T04:51:57.365Z,81.87
2019-03-06T04:54:27.438Z,81.42
2019-03-06T04:56:57.442Z,81.96
2019-03-06T04:59:27.563Z,81.92
2019-03-06T05:01:57.476Z,82.06
2019-03-06T05:04:27.300Z,82.61
2019-03-06T05:06:57.041Z,82.54
2019-03-06T05:09:27.028Z,83.14
2019-03-06T05:11:57.108Z,83.22
2019-03-06T05:14:27.031Z,83.29
2019-03-06T05:17:15.650Z,83.70
2019-03-06T05:19:45.867Z,83.06
2019-03-06T05:22:15.923Z,83.47
2019-03-06T05:24:46.119Z,83.18
2019-03-06T05:27:16.225Z,82.86
2019-03-06T05:29:46.164Z,83.58
2019-03-06T05:32:44.414Z,83.38
2019-03-06T05:35:19.235Z,83.37
2019-03-06T05:38:16.953Z,83.26
2019-03-06T05:40:47.173Z,83.30
2019-03-06T05:43:17.184Z,83.35
2019-03-06T05:45:47.575Z,82.75
2019-03-06T05:48:17.828Z,82.89
2019-03-06T05:50:47.935Z,82.88
2019-03-06T05:53:17.869Z,82.84
2019-03-06T05:55:47.832Z,81.72
2019-03-06T05:58:17.897Z,82.20
2019-03-06T06:00:47.814Z,81.79
2019-03-06T06:03:17.756Z,81.21
2019-03-06T06:05:47.488Z,81.97
2019-03-06T06:08:17.906Z,81.39
2019-03-06T06:10:47.928Z,81.13
2019-03-06T06:13:17.673Z,82.10
2019-03-06T06:15:47.712Z,82.21
2019-03-06T06:18:17.633Z,82.00
2019-03-06T06:20:50.493Z,81.79
2019-03-06T06:23:39.172Z,81.36
2019-03-06T06:26:08.944Z,81.49
2019-03-06T06:28:39.299Z,80.19
2019-03-06T06:31:09.310Z,79.47
2019-03-06T06:33:39.299Z,79.47
2019-03-06T06:36:09.283Z,79.05
2019-03-06T06:38:41.252Z,78.62
2019-03-06T06:41:11.188Z,78.45
2019-03-06T06:43:41.357Z,78.73
2019-03-06T06:46:11.377Z,78.41
2019-03-06T06:48:41.365Z,78.89
2019-03-06T06:51:24.207Z,79.29
2019-03-06T06:54:02.722Z,79.56
2019-03-06T06:57:00.578Z,79.21
2019-03-06T06:59:32.802Z,78.43
2019-03-06T07:02:31.964Z,78.27
2019-03-06T07:05:44.484Z,77.45
2019-03-06T07:08:20.600Z,77.29
2019-03-06T07:11:09.426Z,77.07
2019-03-06T07:13:45.796Z,76.62
2019-03-06T07:16:33.603Z,76.95
2019-03-06T07:19:16.025Z,77.09
2019-03-06T07:22:07.988Z,76.33
2019-03-06T07:24:59.511Z,75.75
2019-03-06T07:27:58.220Z,74.69
2019-03-06T07:30:37.514Z,75.54
2019-03-06T07:33:25.362Z,75.89
2019-03-06T07:36:13.384Z,75.77
2019-03-06T07:38:43.912Z,75.86
2019-03-06T07:41:38.779Z,77.38
2019-03-06T07:44:30.815Z,76.48
2019-03-06T07:47:17.932Z,75.85
2019-03-06T07:49:55.850Z,75.12
2019-03-06T07:52:47.293Z,74.86
2019-03-06T07:55:38.926Z,75.01
2019-03-06T07:58:26.023Z,74.15
2019-03-06T08:00:56.283Z,74.69
2019-03-06T08:03:34.120Z,74.66
2019-03-06T08:06:04.228Z,74.87
2019-03-06T08:08:34.250Z,75.29
2019-03-06T08:11:05.500Z,74.43
2019-03-06T08:13:56.981Z,73.71
2019-03-06T08:16:48.777Z,73.84
2019-03-06T08:19:41.679Z,73.98
2019-03-06T08:22:28.986Z,72.96
2019-03-06T08:25:20.912Z,73.20
2019-03-06T08:27:51.310Z,73.42
2019-03-06T08:30:22.208Z,73.48
2019-03-06T08:32:52.223Z,72.87
2019-03-06T08:35:23.537Z,71.92
2019-03-06T08:37:53.784Z,70.29
2019-03-06T08:40:23.868Z,69.64
2019-03-06T08:42:53.628Z,69.94
2019-03-06T08:45:25.669Z,68.14
2019-03-06T08:48:14.717Z,68.49
2019-03-06T08:51:03.553Z,66.38
2019-03-06T08:53:41.064Z,67.19
2019-03-06T08:56:16.538Z,68.75
2019-03-06T08:59:04.044Z,68.84
2019-03-06T09:02:00.630Z,69.39
2019-03-06T09:04:52.379Z,69.78
2019-03-06T09:07:56.585Z,71.16
2019-03-06T09:10:43.439Z,70.70
2019-03-06T09:13:21.744Z,70.86
2019-03-06T09:16:09.522Z,70.69
2019-03-06T09:18:57.094Z,70.33
2019-03-06T09:21:38.021Z,69.81
2019-03-06T09:24:32.030Z,69.44
2019-03-06T09:27:26.861Z,69.09
2019-03-06T09:30:19.683Z,68.50
2019-03-06T09:33:08.570Z,68.73
2019-03-06T09:35:43.905Z,68.37
2019-03-06T09:38:51.009Z,68.34
2019-03-06T09:41:26.450Z,67.92
2019-03-06T09:44:09.988Z,67.92
2019-03-06T09:47:05.120Z,68.58
2019-03-06T09:49:52.737Z,67.81
2019-03-06T09:52:50.766Z,66.14
2019-03-06T09:55:38.123Z,65.29
2019-03-06T09:58:25.592Z,65.54
2019-03-06T10:01:07.059Z,64.36
2019-03-06T10:04:02.087Z,60.39
2019-03-06T10:07:03.105Z,58.94
2019-03-06T10:09:58.835Z,56.41
2019-03-06T10:12:54.679Z,54.46
2019-03-06T10:15:31.483Z,52.54
2019-03-06T10:18:12.625Z,52.54
2019-03-06T10:20:44.095Z,50.05
2019-03-06T10:23:15.604Z,49.32
2019-03-06T10:25:47.158Z,48.19
2019-03-06T10:28:27.548Z,45.51
2019-03-06T10:30:51.775Z,46.29
2019-03-06T10:33:22.885Z,45.86
2019-03-06T10:35:54.203Z,44.48
2019-03-06T10:38:25.713Z,43.03
2019-03-06T10:40:57.001Z,40.81
2019-03-06T10:43:28.347Z,40.43
2019-03-06T10:45:59.675Z,41.04
2019-03-06T10:48:30.923Z,40.35
2019-03-06T10:51:02.309Z,39.10
2019-03-06T10:53:41.135Z,37.60
2019-03-06T10:56:07.907Z,36.35
2019-03-06T10:58:39.279Z,35.10
2019-03-06T11:01:11.235Z,35.42
2019-03-06T11:03:50.924Z,35.92
2019-03-06T11:06:22.253Z,36.69
2019-03-06T11:08:53.762Z,35.52
2019-03-06T11:11:25.008Z,31.67
2019-03-06T11:14:03.376Z,31.91
2019-03-06T11:16:29.454Z,32.83
2019-03-06T11:19:03.248Z,32.08
2019-03-06T11:21:34.702Z,30.81
2019-03-06T11:24:06.650Z,31.07
2019-03-06T11:26:38.852Z,30.33
2019-03-06T11:29:11.869Z,31.74
2019-03-06T11:31:43.802Z,31.49
2019-03-06T11:34:16.291Z,30.22
2019-03-06T11:36:47.936Z,30.15
2019-03-06T11:39:19.380Z,30.30
2019-03-06T11:41:50.704Z,30.39
2019-03-06T11:44:21.889Z,31.75
2019-03-06T11:46:54.358Z,32.65
2019-03-06T11:49:25.773Z,32.88
2019-03-06T11:51:57.495Z,33.52
2019-03-06T11:54:28.747Z,32.71
2019-03-06T11:57:00.090Z,32.74
2019-03-06T11:59:31.472Z,31.92
2019-03-06T12:02:02.809Z,31.39
2019-03-06T12:04:34.109Z,32.07
2019-03-06T12:07:05.455Z,31.16
2019-03-06T12:09:36.541Z,32.08
2019-03-06T12:12:07.852Z,33.37
2019-03-06T12:14:38.822Z,33.25
2019-03-06T12:17:10.135Z,33.19
2019-03-06T12:19:41.271Z,33.25
2019-03-06T12:22:12.560Z,31.61
2019-03-06T12:24:43.482Z,31.95
2019-03-06T12:27:14.613Z,32.48
2019-03-06T12:29:46.820Z,33.34
2019-03-06T12:32:17.967Z,32.71
2019-03-06T12:34:49.114Z,33.90
2019-03-06T12:37:20.290Z,34.53
2019-03-06T12:39:51.229Z,34.26
2019-03-06T12:42:23.349Z,34.23
2019-03-06T12:44:54.479Z,34.88
2019-03-06T12:47:25.585Z,34.39
2019-03-06T12:50:05.437Z,34.10
2019-03-06T12:52:30.914Z,33.41
2019-03-06T12:55:02.255Z,32.72
2019-03-06T12:57:33.392Z,33.43
2019-03-06T13:00:06.501Z,32.83
2019-03-06T13:02:37.975Z,32.68
2019-03-06T13:05:09.187Z,32.73
2019-03-06T13:07:40.462Z,32.90
2019-03-06T13:10:12.191Z,33.20
2019-03-06T13:12:43.608Z,33.89
2019-03-06T13:15:16.834Z,33.43
2019-03-06T13:17:47.995Z,32.96
2019-03-06T13:20:19.246Z,32.96
2019-03-06T13:22:51.573Z,33.71
2019-03-06T13:25:23.365Z,31.55
2019-03-06T13:27:57.349Z,32.15
2019-03-06T13:30:28.770Z,32.15
2019-03-06T13:33:13.676Z,32.80
2019-03-06T13:35:44.813Z,33.67
2019-03-06T13:38:16.037Z,32.94
2019-03-06T13:40:47.292Z,32.24
2019-03-06T13:43:18.450Z,32.07
2019-03-06T13:45:49.903Z,32.56
2019-03-06T13:48:21.077Z,32.38
2019-03-06T13:50:52.486Z,32.48
2019-03-06T13:53:23.835Z,32.52
2019-03-06T13:55:55.108Z,32.04
2019-03-06T13:58:26.706Z,32.53
2019-03-06T14:00:58.050Z,32.74
2019-03-06T14:03:29.386Z,32.52
2019-03-06T14:06:01.055Z,32.61
2019-03-06T14:08:32.263Z,32.56
2019-03-06T14:11:03.703Z,32.25
2019-03-06T14:13:35.323Z,32.45
2019-03-06T14:16:07.264Z,32.29
2019-03-06T14:18:38.951Z,32.16
2019-03-06T14:21:10.623Z,32.64
2019-03-06T14:23:41.985Z,32.29
2019-03-06T14:26:13.530Z,32.49
2019-03-06T14:28:44.583Z,32.20
2019-03-06T14:31:16.944Z,31.73
2019-03-06T14:33:48.231Z,30.97
2019-03-06T14:36:19.593Z,30.45
2019-03-06T14:38:50.585Z,31.14
2019-03-06T14:41:21.910Z,31.14
2019-03-06T14:43:53.347Z,31.41
2019-03-06T14:46:24.561Z,31.90
2019-03-06T14:48:55.520Z,31.10
2019-03-06T14:51:26.946Z,31.10
2019-03-06T14:53:58.134Z,30.92
2019-03-06T14:56:29.726Z,31.32
2019-03-06T14:59:01.221Z,31.17
2019-03-06T15:01:33.627Z,30.56
2019-03-06T15:04:05.385Z,30.52
2019-03-06T15:06:36.687Z,30.94
2019-03-06T15:09:28.391Z,31.23
2019-03-06T15:11:59.614Z,31.44
2019-03-06T15:14:36.303Z,30.29
2019-03-06T15:17:03.555Z,30.56
2019-03-06T15:19:34.816Z,30.85
2019-03-06T15:22:06.408Z,30.37
2019-03-06T15:24:41.355Z,31.13
2019-03-06T15:27:10.767Z,31.13
2019-03-06T15:29:42.192Z,30.59
2019-03-06T15:32:13.426Z,30.83
2019-03-06T15:34:44.516Z,30.59
2019-03-06T15:37:15.602Z,30.16
2019-03-06T15:39:48.790Z,31.03
2019-03-06T15:42:19.695Z,30.27
2019-03-06T15:44:50.727Z,29.79
2019-03-06T15:47:21.834Z,30.30
2019-03-06T15:49:53.586Z,30.52
2019-03-06T15:52:24.790Z,30.32
2019-03-06T15:54:55.861Z,30.02
2019-03-06T15:57:27.226Z,30.18
2019-03-06T15:59:58.288Z,30.66
2019-03-06T16:02:30.435Z,31.00
2019-03-06T16:05:01.508Z,30.75
2019-03-06T16:07:32.506Z,30.92
2019-03-06T16:10:03.536Z,30.72
2019-03-06T16:12:34.494Z,30.97
2019-03-06T16:15:05.715Z,30.53
2019-03-06T16:17:36.821Z,30.20
2019-03-06T16:20:13.712Z,31.39
2019-03-06T16:22:45.905Z,31.39
2019-03-06T16:25:17.194Z,30.87
2019-03-06T16:27:48.507Z,30.04
2019-03-06T16:30:19.880Z,30.04
2019-03-06T16:32:51.233Z,30.53
2019-03-06T16:35:22.621Z,30.14
2019-03-06T16:37:53.973Z,30.56
2019-03-06T16:40:25.738Z,30.40
2019-03-06T16:42:57.157Z,30.15
2019-03-06T16:45:28.374Z,30.40
2019-03-06T16:48:00.742Z,30.40
2019-03-06T16:50:32.288Z,30.27
2019-03-06T16:53:03.475Z,30.43
2019-03-06T16:55:34.919Z,30.43
2019-03-06T16:58:06.511Z,30.71
2019-03-06T17:00:38.211Z,30.56
2019-03-06T17:03:09.936Z,30.87
2019-03-06T17:05:41.303Z,30.78
2019-03-06T17:08:12.647Z,30.86
2019-03-06T17:10:43.810Z,30.86
2019-03-06T17:13:14.890Z,31.52
2019-03-06T17:15:46.118Z,31.23
2019-03-06T17:18:17.615Z,31.56
2019-03-06T17:20:49.039Z,31.56
2019-03-06T17:23:20.562Z,32.11
2019-03-06T17:25:51.773Z,32.67
2019-03-06T17:28:23.074Z,33.69
2019-03-06T17:30:54.460Z,35.96
2019-03-06T17:33:25.981Z,34.75
2019-03-06T17:35:57.578Z,33.79
2019-03-06T17:38:29.165Z,33.86
2019-03-06T17:41:00.443Z,34.58
2019-03-06T17:43:31.668Z,35.07
2019-03-06T17:46:03.053Z,34.78
2019-03-06T17:48:34.401Z,35.27
2019-03-06T17:51:05.929Z,35.07
2019-03-06T17:53:36.832Z,34.75
2019-03-06T17:56:08.192Z,34.87
2019-03-06T17:58:39.596Z,34.09
2019-03-06T18:01:15.395Z,34.56
2019-03-06T18:04:01.600Z,35.82
2019-03-06T18:06:33.484Z,36.72
2019-03-06T18:09:05.562Z,37.79
2019-03-06T18:11:38.438Z,38.62
2019-03-06T18:14:09.486Z,38.68
2019-03-06T18:16:40.934Z,39.72
2019-03-06T18:19:12.209Z,39.59
2019-03-06T18:21:43.561Z,40.84
2019-03-06T18:24:15.086Z,40.58
2019-03-06T18:26:46.773Z,40.53
2019-03-06T18:29:18.133Z,40.85
2019-03-06T18:31:49.428Z,41.59
2019-03-06T18:34:21.064Z,41.43
2019-03-06T18:36:52.757Z,42.01
2019-03-06T18:39:24.494Z,42.67
2019-03-06T18:41:56.362Z,42.92
2019-03-06T18:44:27.559Z,42.06
2019-03-06T18:46:59.173Z,43.21
2019-03-06T18:49:30.439Z,43.47
2019-03-06T18:52:01.660Z,43.50
2019-03-06T18:54:33.530Z,43.98
2019-03-06T18:57:05.250Z,44.40
2019-03-06T18:59:36.831Z,44.68
2019-03-06T19:02:08.727Z,45.36
2019-03-06T19:04:40.091Z,45.69
2019-03-06T19:07:11.817Z,45.44
2019-03-06T19:09:43.163Z,45.78
2019-03-06T19:12:14.648Z,46.44
2019-03-06T19:14:46.200Z,46.07
2019-03-06T19:17:17.493Z,46.14
2019-03-06T19:19:49.243Z,46.88
2019-03-06T19:22:20.690Z,46.61
2019-03-06T19:24:52.103Z,47.48
2019-03-06T19:27:23.427Z,47.52
2019-03-06T19:29:54.618Z,47.35
2019-03-06T19:32:26.397Z,47.48
2019-03-06T19:34:57.761Z,48.07
2019-03-06T19:37:29.145Z,47.66
2019-03-06T19:40:00.491Z,47.53
2019-03-06T19:42:31.710Z,48.23
2019-03-06T19:45:03.265Z,48.45
2019-03-06T19:47:34.477Z,48.44
2019-03-06T19:50:08.327Z,47.98
2019-03-06T19:52:39.652Z,47.92
2019-03-06T19:55:11.312Z,47.55
2019-03-06T19:57:53.203Z,47.57
2019-03-06T20:00:26.470Z,47.88
2019-03-06T20:02:58.388Z,47.85
2019-03-06T20:05:34.681Z,48.54
2019-03-06T20:08:09.229Z,47.58
2019-03-06T20:10:41.044Z,46.55
2019-03-06T20:13:13.021Z,46.75
2019-03-06T20:15:44.443Z,47.91
2019-03-06T20:18:16.065Z,48.50
2019-03-06T20:20:47.876Z,47.34
2019-03-06T20:23:19.351Z,47.55
2019-03-06T20:25:51.242Z,48.28
2019-03-06T20:28:22.632Z,48.85
2019-03-06T20:30:53.827Z,48.57
2019-03-06T20:33:25.414Z,47.22
2019-03-06T20:35:56.784Z,48.90
2019-03-06T20:38:28.212Z,49.22
2019-03-06T20:40:59.710Z,48.30
2019-03-06T20:43:30.952Z,49.49
2019-03-06T20:46:02.674Z,48.98
2019-03-06T20:48:34.075Z,49.60
2019-03-06T20:51:05.675Z,48.70
2019-03-06T20:53:37.024Z,48.44
2019-03-06T20:56:08.532Z,49.25
2019-03-06T20:58:39.750Z,49.81
2019-03-06T21:01:11.328Z,50.04
2019-03-06T21:03:42.942Z,50.28
2019-03-06T21:06:14.480Z,50.59
2019-03-06T21:08:45.995Z,50.92
2019-03-06T21:11:17.499Z,50.58
2019-03-06T21:13:48.711Z,51.21
2019-03-06T21:16:19.953Z,51.63
2019-03-06T21:18:51.334Z,51.49
2019-03-06T21:21:22.648Z,51.57
2019-03-06T21:23:53.954Z,51.89
2019-03-06T21:26:25.531Z,52.75
2019-03-06T21:28:56.980Z,52.50
2019-03-06T21:31:28.717Z,52.58
2019-03-06T21:34:00.295Z,53.31
2019-03-06T21:36:31.680Z,53.11
2019-03-06T21:39:04.414Z,54.22
2019-03-06T21:41:37.251Z,53.63
2019-03-06T21:44:08.640Z,53.41
2019-03-06T21:46:40.402Z,53.34
2019-03-06T21:49:11.692Z,53.83
2019-03-06T21:51:43.410Z,54.42
2019-03-06T21:54:14.830Z,52.90
2019-03-06T21:56:46.038Z,52.34
2019-03-06T21:59:17.478Z,53.43
2019-03-06T22:01:49.033Z,52.96
2019-03-06T22:04:20.565Z,51.89
2019-03-06T22:06:51.966Z,52.36
2019-03-06T22:09:23.448Z,52.49
2019-03-06T22:11:54.927Z,52.19
2019-03-06T22:14:26.529Z,54.11
2019-03-06T22:16:58.003Z,53.52
2019-03-06T22:19:31.568Z,53.59
2019-03-06T22:22:03.116Z,53.62
2019-03-06T22:24:34.741Z,54.93
2019-03-06T22:27:06.978Z,54.81
2019-03-06T22:29:38.384Z,55.28
2019-03-06T22:32:09.994Z,55.36
2019-03-06T22:34:41.424Z,56.29
2019-03-06T22:37:12.825Z,56.46
2019-03-06T22:39:44.043Z,56.23
2019-03-06T22:42:15.243Z,55.91
2019-03-06T22:44:46.493Z,55.21
2019-03-06T22:47:17.839Z,55.34
2019-03-06T22:49:49.070Z,56.41
2019-03-06T22:52:20.502Z,55.02
2019-03-06T22:54:51.885Z,56.08
2019-03-06T22:57:23.174Z,55.22
2019-03-06T22:59:54.415Z,56.11
2019-03-06T23:02:26.130Z,55.91
2019-03-06T23:04:57.528Z,55.90
2019-03-06T23:07:28.863Z,55.91
2019-03-06T23:10:00.360Z,55.86
2019-03-06T23:12:33.240Z,56.02
2019-03-06T23:15:04.534Z,55.84
2019-03-06T23:17:35.816Z,55.36
2019-03-06T23:20:07.391Z,56.05
2019-03-06T23:22:38.972Z,56.02
2019-03-06T23:25:10.510Z,56.99
2019-03-06T23:27:42.272Z,56.80
2019-03-06T23:30:13.746Z,56.84
2019-03-06T23:32:45.258Z,56.46
2019-03-06T23:35:16.705Z,56.90
2019-03-06T23:37:48.219Z,57.89
2019-03-06T23:40:19.749Z,57.99
2019-03-06T23:42:51.253Z,57.56
2019-03-06T23:45:22.453Z,57.24
2019-03-06T23:47:53.670Z,57.22
2019-03-06T23:50:25.032Z,57.71
2019-03-06T23:53:05.060Z,57.77
2019-03-06T23:55:36.509Z,57.92
2019-03-06T23:58:08.329Z,58.92
